sensor_id;sensor_type;location;lat;lon;timestamp;P1;durP1;ratioP1;P2;durP2;ratioP2
1378;SDS011;683;48.738;9.226;2022-09-21T00:01:13;17.67;;;11.17;;
1378;SDS011;683;48.738;9.226;2022-09-21T00:03:42;19.70;;;10.80;;
1378;SDS011;683;48.738;9.226;2022-09-21T00:06:11;15.47;;;10.57;;
1378;SDS011;683;48.738;9.226;2022-09-21T00:08:40;12.37;;;10.50;;
1378;SDS011;683;48.738;9.226;2022-09-21T00:11:10;15.50;;;11.50;;
1378;SDS011;683;48.738;9.226;2022-09-21T00:13:39;14.20;;;11.03;;
1378;SDS011;683;48.738;9.226;2022-09-21T00:16:10;11.23;;;10.03;;
1378;SDS011;683;48.738;9.226;2022-09-21T00:18:38;16.80;;;11.47;;
1378;SDS011;683;48.738;9.226;2022-09-21T00:21:06;14.77;;;10.70;;
1378;SDS011;683;48.738;9.226;2022-09-21T00:23:34;16.60;;;11.13;;
1378;SDS011;683;48.738;9.226;2022-09-21T00:26:03;15.43;;;11.20;;
1378;SDS011;683;48.738;9.226;2022-09-21T00:28:31;24.87;;;10.73;;
1378;SDS011;683;48.738;9.226;2022-09-21T00:31:01;14.90;;;10.70;;
1378;SDS011;683;48.738;9.226;2022-09-21T00:33:29;13.47;;;10.43;;
1378;SDS011;683;48.738;9.226;2022-09-21T00:36:00;21.00;;;11.73;;
1378;SDS011;683;48.738;9.226;2022-09-21T00:38:29;12.70;;;10.50;;
1378;SDS011;683;48.738;9.226;2022-09-21T00:40:57;11.00;;;9.90;;
1378;SDS011;683;48.738;9.226;2022-09-21T00:43:24;12.67;;;11.37;;
1378;SDS011;683;48.738;9.226;2022-09-21T00:45:53;16.90;;;12.00;;
1378;SDS011;683;48.738;9.226;2022-09-21T00:48:27;17.50;;;11.87;;
1378;SDS011;683;48.738;9.226;2022-09-21T00:50:56;17.57;;;12.23;;
1378;SDS011;683;48.738;9.226;2022-09-21T00:53:27;12.37;;;10.70;;
1378;SDS011;683;48.738;9.226;2022-09-21T00:55:56;14.80;;;11.60;;
1378;SDS011;683;48.738;9.226;2022-09-21T00:58:25;16.40;;;11.40;;
1378;SDS011;683;48.738;9.226;2022-09-21T01:00:57;15.03;;;11.87;;
1378;SDS011;683;48.738;9.226;2022-09-21T01:03:27;14.33;;;12.03;;
1378;SDS011;683;48.738;9.226;2022-09-21T01:05:56;15.40;;;11.70;;
1378;SDS011;683;48.738;9.226;2022-09-21T01:08:24;19.60;;;11.83;;
1378;SDS011;683;48.738;9.226;2022-09-21T01:11:00;13.77;;;11.77;;
1378;SDS011;683;48.738;9.226;2022-09-21T01:13:50;15.77;;;12.23;;
1378;SDS011;683;48.738;9.226;2022-09-21T01:16:33;19.50;;;13.23;;
1378;SDS011;683;48.738;9.226;2022-09-21T01:19:09;15.77;;;13.70;;
1378;SDS011;683;48.738;9.226;2022-09-21T01:21:49;19.63;;;14.00;;
1378;SDS011;683;48.738;9.226;2022-09-21T01:24:32;16.13;;;14.27;;
1378;SDS011;683;48.738;9.226;2022-09-21T01:30:18;19.77;;;14.40;;
1378;SDS011;683;48.738;9.226;2022-09-21T01:32:47;16.20;;;12.93;;
1378;SDS011;683;48.738;9.226;2022-09-21T01:35:21;15.53;;;13.27;;
1378;SDS011;683;48.738;9.226;2022-09-21T01:37:53;17.53;;;12.73;;
1378;SDS011;683;48.738;9.226;2022-09-21T01:40:26;19.33;;;14.20;;
1378;SDS011;683;48.738;9.226;2022-09-21T01:42:57;17.70;;;14.57;;
1378;SDS011;683;48.738;9.226;2022-09-21T01:45:30;25.03;;;16.07;;
1378;SDS011;683;48.738;9.226;2022-09-21T01:48:00;18.37;;;14.00;;
1378;SDS011;683;48.738;9.226;2022-09-21T01:50:30;18.70;;;13.77;;
1378;SDS011;683;48.738;9.226;2022-09-21T01:53:01;18.40;;;14.63;;
1378;SDS011;683;48.738;9.226;2022-09-21T01:55:32;20.40;;;14.70;;
1378;SDS011;683;48.738;9.226;2022-09-21T01:58:07;23.80;;;14.50;;
1378;SDS011;683;48.738;9.226;2022-09-21T02:00:40;17.53;;;13.83;;
1378;SDS011;683;48.738;9.226;2022-09-21T02:03:11;19.83;;;14.10;;
1378;SDS011;683;48.738;9.226;2022-09-21T02:05:42;19.90;;;14.37;;
1378;SDS011;683;48.738;9.226;2022-09-21T02:08:09;15.60;;;13.83;;
1378;SDS011;683;48.738;9.226;2022-09-21T02:10:39;23.90;;;14.73;;
1378;SDS011;683;48.738;9.226;2022-09-21T02:13:10;21.53;;;14.10;;
1378;SDS011;683;48.738;9.226;2022-09-21T02:15:46;18.10;;;13.80;;
1378;SDS011;683;48.738;9.226;2022-09-21T02:18:24;14.57;;;12.40;;
1378;SDS011;683;48.738;9.226;2022-09-21T02:21:06;17.10;;;15.03;;
1378;SDS011;683;48.738;9.226;2022-09-21T02:23:41;18.10;;;13.97;;
1378;SDS011;683;48.738;9.226;2022-09-21T02:26:14;18.97;;;14.63;;
1378;SDS011;683;48.738;9.226;2022-09-21T02:28:48;17.00;;;14.17;;
1378;SDS011;683;48.738;9.226;2022-09-21T02:31:22;23.50;;;14.87;;
1378;SDS011;683;48.738;9.226;2022-09-21T02:33:58;24.70;;;16.30;;
1378;SDS011;683;48.738;9.226;2022-09-21T02:36:30;27.20;;;15.37;;
1378;SDS011;683;48.738;9.226;2022-09-21T02:39:05;24.33;;;16.30;;
1378;SDS011;683;48.738;9.226;2022-09-21T02:41:37;19.77;;;15.40;;
1378;SDS011;683;48.738;9.226;2022-09-21T02:44:10;19.57;;;15.43;;
1378;SDS011;683;48.738;9.226;2022-09-21T02:46:46;22.03;;;16.40;;
1378;SDS011;683;48.738;9.226;2022-09-21T02:49:18;19.57;;;15.40;;
1378;SDS011;683;48.738;9.226;2022-09-21T02:51:49;27.23;;;17.00;;
1378;SDS011;683;48.738;9.226;2022-09-21T02:54:20;20.57;;;15.37;;
1378;SDS011;683;48.738;9.226;2022-09-21T02:56:50;26.90;;;18.00;;
1378;SDS011;683;48.738;9.226;2022-09-21T02:59:20;29.40;;;22.90;;
1378;SDS011;683;48.738;9.226;2022-09-21T03:01:50;30.67;;;23.00;;
1378;SDS011;683;48.738;9.226;2022-09-21T03:04:18;35.20;;;24.77;;
1378;SDS011;683;48.738;9.226;2022-09-21T03:06:45;30.37;;;22.70;;
1378;SDS011;683;48.738;9.226;2022-09-21T03:09:13;27.47;;;21.30;;
1378;SDS011;683;48.738;9.226;2022-09-21T03:11:40;33.40;;;20.37;;
1378;SDS011;683;48.738;9.226;2022-09-21T03:14:08;33.77;;;21.27;;
1378;SDS011;683;48.738;9.226;2022-09-21T03:16:35;30.37;;;19.67;;
1378;SDS011;683;48.738;9.226;2022-09-21T03:19:05;26.97;;;19.47;;
1378;SDS011;683;48.738;9.226;2022-09-21T03:21:32;28.80;;;20.50;;
1378;SDS011;683;48.738;9.226;2022-09-21T03:24:00;23.27;;;19.20;;
1378;SDS011;683;48.738;9.226;2022-09-21T03:26:27;29.13;;;19.60;;
1378;SDS011;683;48.738;9.226;2022-09-21T03:28:55;46.67;;;31.83;;
1378;SDS011;683;48.738;9.226;2022-09-21T03:31:22;45.70;;;31.47;;
1378;SDS011;683;48.738;9.226;2022-09-21T03:33:49;41.80;;;27.60;;
1378;SDS011;683;48.738;9.226;2022-09-21T03:36:18;40.90;;;30.40;;
1378;SDS011;683;48.738;9.226;2022-09-21T03:38:46;46.27;;;31.73;;
1378;SDS011;683;48.738;9.226;2022-09-21T03:41:13;44.10;;;31.07;;
1378;SDS011;683;48.738;9.226;2022-09-21T03:43:41;37.03;;;29.00;;
1378;SDS011;683;48.738;9.226;2022-09-21T03:46:08;37.93;;;26.10;;
1378;SDS011;683;48.738;9.226;2022-09-21T03:48:36;37.30;;;26.97;;
1378;SDS011;683;48.738;9.226;2022-09-21T03:51:06;29.30;;;22.10;;
1378;SDS011;683;48.738;9.226;2022-09-21T03:53:35;32.57;;;25.20;;
1378;SDS011;683;48.738;9.226;2022-09-21T03:56:02;30.60;;;23.10;;
1378;SDS011;683;48.738;9.226;2022-09-21T03:58:30;35.53;;;23.30;;
1378;SDS011;683;48.738;9.226;2022-09-21T04:00:59;31.20;;;23.57;;
1378;SDS011;683;48.738;9.226;2022-09-21T04:03:28;30.53;;;21.67;;
1378;SDS011;683;48.738;9.226;2022-09-21T04:05:55;29.83;;;23.47;;
1378;SDS011;683;48.738;9.226;2022-09-21T04:08:23;37.13;;;25.83;;
1378;SDS011;683;48.738;9.226;2022-09-21T04:10:52;31.30;;;24.20;;
1378;SDS011;683;48.738;9.226;2022-09-21T04:13:20;36.80;;;22.37;;
1378;SDS011;683;48.738;9.226;2022-09-21T04:15:49;35.80;;;21.03;;
1378;SDS011;683;48.738;9.226;2022-09-21T04:18:16;38.30;;;25.13;;
1378;SDS011;683;48.738;9.226;2022-09-21T04:20:44;39.80;;;26.30;;
1378;SDS011;683;48.738;9.226;2022-09-21T04:23:11;32.80;;;23.93;;
1378;SDS011;683;48.738;9.226;2022-09-21T04:25:39;33.30;;;23.80;;
1378;SDS011;683;48.738;9.226;2022-09-21T04:28:08;26.57;;;18.60;;
1378;SDS011;683;48.738;9.226;2022-09-21T04:30:35;26.30;;;16.50;;
1378;SDS011;683;48.738;9.226;2022-09-21T04:33:02;23.43;;;16.77;;
1378;SDS011;683;48.738;9.226;2022-09-21T04:35:30;26.63;;;20.53;;
1378;SDS011;683;48.738;9.226;2022-09-21T04:37:57;36.10;;;21.37;;
1378;SDS011;683;48.738;9.226;2022-09-21T04:40:24;31.30;;;19.60;;
1378;SDS011;683;48.738;9.226;2022-09-21T04:42:53;27.80;;;21.27;;
1378;SDS011;683;48.738;9.226;2022-09-21T04:45:22;29.70;;;22.70;;
1378;SDS011;683;48.738;9.226;2022-09-21T04:47:50;32.73;;;24.50;;
1378;SDS011;683;48.738;9.226;2022-09-21T04:50:17;30.30;;;22.53;;
1378;SDS011;683;48.738;9.226;2022-09-21T04:52:45;38.47;;;24.87;;
1378;SDS011;683;48.738;9.226;2022-09-21T04:55:13;30.97;;;24.20;;
1378;SDS011;683;48.738;9.226;2022-09-21T04:57:41;32.50;;;21.70;;
1378;SDS011;683;48.738;9.226;2022-09-21T05:00:09;40.00;;;24.37;;
1378;SDS011;683;48.738;9.226;2022-09-21T05:02:38;32.53;;;23.80;;
1378;SDS011;683;48.738;9.226;2022-09-21T05:05:06;33.57;;;23.70;;
1378;SDS011;683;48.738;9.226;2022-09-21T05:07:33;32.10;;;22.03;;
1378;SDS011;683;48.738;9.226;2022-09-21T05:10:01;37.87;;;20.87;;
1378;SDS011;683;48.738;9.226;2022-09-21T05:12:27;28.57;;;21.07;;
1378;SDS011;683;48.738;9.226;2022-09-21T05:14:55;27.80;;;20.60;;
1378;SDS011;683;48.738;9.226;2022-09-21T05:17:22;29.50;;;21.07;;
1378;SDS011;683;48.738;9.226;2022-09-21T05:19:51;34.20;;;23.20;;
1378;SDS011;683;48.738;9.226;2022-09-21T05:22:18;32.40;;;22.27;;
1378;SDS011;683;48.738;9.226;2022-09-21T05:24:46;28.33;;;20.77;;
1378;SDS011;683;48.738;9.226;2022-09-21T05:27:16;34.13;;;25.87;;
1378;SDS011;683;48.738;9.226;2022-09-21T05:29:43;37.77;;;25.23;;
1378;SDS011;683;48.738;9.226;2022-09-21T05:32:15;39.87;;;27.33;;
1378;SDS011;683;48.738;9.226;2022-09-21T05:34:54;33.00;;;25.00;;
1378;SDS011;683;48.738;9.226;2022-09-21T05:37:36;41.37;;;28.90;;
1378;SDS011;683;48.738;9.226;2022-09-21T05:40:14;47.73;;;33.60;;
1378;SDS011;683;48.738;9.226;2022-09-21T05:42:44;48.60;;;33.87;;
1378;SDS011;683;48.738;9.226;2022-09-21T05:45:12;51.30;;;32.33;;
1378;SDS011;683;48.738;9.226;2022-09-21T05:47:44;56.50;;;35.17;;
1378;SDS011;683;48.738;9.226;2022-09-21T05:56:05;36.30;;;24.63;;
1378;SDS011;683;48.738;9.226;2022-09-21T05:58:42;26.60;;;20.60;;
1378;SDS011;683;48.738;9.226;2022-09-21T06:01:18;26.23;;;19.13;;
1378;SDS011;683;48.738;9.226;2022-09-21T06:03:56;26.20;;;18.40;;
1378;SDS011;683;48.738;9.226;2022-09-21T06:06:27;26.87;;;19.10;;
1378;SDS011;683;48.738;9.226;2022-09-21T06:08:57;18.23;;;15.17;;
1378;SDS011;683;48.738;9.226;2022-09-21T06:11:28;22.50;;;15.23;;
1378;SDS011;683;48.738;9.226;2022-09-21T06:13:55;22.83;;;15.63;;
1378;SDS011;683;48.738;9.226;2022-09-21T06:16:22;17.90;;;14.17;;
1378;SDS011;683;48.738;9.226;2022-09-21T06:18:50;19.10;;;13.67;;
1378;SDS011;683;48.738;9.226;2022-09-21T06:21:17;17.43;;;14.23;;
1378;SDS011;683;48.738;9.226;2022-09-21T06:23:46;17.57;;;12.17;;
1378;SDS011;683;48.738;9.226;2022-09-21T06:26:13;21.10;;;13.00;;
1378;SDS011;683;48.738;9.226;2022-09-21T06:28:42;16.40;;;13.47;;
1378;SDS011;683;48.738;9.226;2022-09-21T06:31:09;17.57;;;13.20;;
1378;SDS011;683;48.738;9.226;2022-09-21T06:33:36;14.20;;;12.70;;
1378;SDS011;683;48.738;9.226;2022-09-21T06:36:06;14.30;;;12.80;;
1378;SDS011;683;48.738;9.226;2022-09-21T06:38:33;15.13;;;12.80;;
1378;SDS011;683;48.738;9.226;2022-09-21T06:41:03;15.10;;;13.53;;
1378;SDS011;683;48.738;9.226;2022-09-21T06:43:31;15.10;;;13.50;;
1378;SDS011;683;48.738;9.226;2022-09-21T06:45:59;20.80;;;15.00;;
1378;SDS011;683;48.738;9.226;2022-09-21T06:48:28;16.57;;;14.90;;
1378;SDS011;683;48.738;9.226;2022-09-21T06:50:58;18.23;;;16.30;;
1378;SDS011;683;48.738;9.226;2022-09-21T06:53:26;18.83;;;16.87;;
1378;SDS011;683;48.738;9.226;2022-09-21T06:55:58;15.97;;;14.37;;
1378;SDS011;683;48.738;9.226;2022-09-21T06:58:29;15.90;;;13.10;;
1378;SDS011;683;48.738;9.226;2022-09-21T07:01:02;16.57;;;14.27;;
1378;SDS011;683;48.738;9.226;2022-09-21T07:03:34;14.60;;;12.50;;
1378;SDS011;683;48.738;9.226;2022-09-21T07:06:02;12.73;;;11.60;;
1378;SDS011;683;48.738;9.226;2022-09-21T07:08:29;12.33;;;11.10;;
1378;SDS011;683;48.738;9.226;2022-09-21T07:10:57;22.13;;;12.70;;
1378;SDS011;683;48.738;9.226;2022-09-21T07:13:25;13.73;;;11.43;;
1378;SDS011;683;48.738;9.226;2022-09-21T07:15:54;13.83;;;12.00;;
1378;SDS011;683;48.738;9.226;2022-09-21T07:18:21;12.43;;;9.73;;
1378;SDS011;683;48.738;9.226;2022-09-21T07:20:49;11.57;;;10.03;;
1378;SDS011;683;48.738;9.226;2022-09-21T07:23:17;10.60;;;9.27;;
1378;SDS011;683;48.738;9.226;2022-09-21T07:25:47;8.53;;;7.73;;
1378;SDS011;683;48.738;9.226;2022-09-21T07:28:17;9.20;;;8.10;;
1378;SDS011;683;48.738;9.226;2022-09-21T07:30:47;12.73;;;8.67;;
1378;SDS011;683;48.738;9.226;2022-09-21T07:33:15;11.60;;;8.70;;
1378;SDS011;683;48.738;9.226;2022-09-21T07:35:49;8.97;;;7.23;;
1378;SDS011;683;48.738;9.226;2022-09-21T07:38:17;8.87;;;7.10;;
1378;SDS011;683;48.738;9.226;2022-09-21T07:40:45;9.20;;;7.70;;
1378;SDS011;683;48.738;9.226;2022-09-21T07:43:12;12.27;;;7.87;;
1378;SDS011;683;48.738;9.226;2022-09-21T07:45:39;10.20;;;7.27;;
1378;SDS011;683;48.738;9.226;2022-09-21T07:48:07;7.43;;;5.60;;
1378;SDS011;683;48.738;9.226;2022-09-21T07:50:36;5.97;;;5.43;;
1378;SDS011;683;48.738;9.226;2022-09-21T07:53:03;6.30;;;5.30;;
1378;SDS011;683;48.738;9.226;2022-09-21T07:55:31;5.70;;;5.20;;
1378;SDS011;683;48.738;9.226;2022-09-21T07:57:58;6.60;;;4.47;;
1378;SDS011;683;48.738;9.226;2022-09-21T08:00:42;5.90;;;5.00;;
1378;SDS011;683;48.738;9.226;2022-09-21T08:03:11;4.87;;;4.47;;
1378;SDS011;683;48.738;9.226;2022-09-21T08:05:43;7.23;;;4.83;;
1378;SDS011;683;48.738;9.226;2022-09-21T08:08:11;5.90;;;5.33;;
1378;SDS011;683;48.738;9.226;2022-09-21T08:10:40;8.33;;;4.90;;
1378;SDS011;683;48.738;9.226;2022-09-21T08:13:07;5.93;;;4.57;;
1378;SDS011;683;48.738;9.226;2022-09-21T08:15:34;6.33;;;3.90;;
1378;SDS011;683;48.738;9.226;2022-09-21T08:18:02;4.27;;;3.70;;
1378;SDS011;683;48.738;9.226;2022-09-21T08:20:31;6.27;;;2.53;;
1378;SDS011;683;48.738;9.226;2022-09-21T08:23:01;4.57;;;3.50;;
1378;SDS011;683;48.738;9.226;2022-09-21T08:25:29;2.70;;;2.50;;
1378;SDS011;683;48.738;9.226;2022-09-21T08:27:57;4.23;;;2.33;;
1378;SDS011;683;48.738;9.226;2022-09-21T08:30:25;4.13;;;2.50;;
1378;SDS011;683;48.738;9.226;2022-09-21T08:32:55;3.50;;;3.00;;
1378;SDS011;683;48.738;9.226;2022-09-21T08:35:26;2.27;;;2.07;;
1378;SDS011;683;48.738;9.226;2022-09-21T08:37:54;4.87;;;2.30;;
1378;SDS011;683;48.738;9.226;2022-09-21T08:40:22;4.13;;;2.90;;
1378;SDS011;683;48.738;9.226;2022-09-21T08:42:51;2.57;;;1.60;;
1378;SDS011;683;48.738;9.226;2022-09-21T08:45:25;3.40;;;2.20;;
1378;SDS011;683;48.738;9.226;2022-09-21T08:47:59;1.67;;;1.40;;
1378;SDS011;683;48.738;9.226;2022-09-21T08:50:33;1.97;;;1.70;;
1378;SDS011;683;48.738;9.226;2022-09-21T08:53:05;11.80;;;3.00;;
1378;SDS011;683;48.738;9.226;2022-09-21T08:55:39;3.33;;;1.80;;
1378;SDS011;683;48.738;9.226;2022-09-21T08:58:10;5.20;;;1.93;;
1378;SDS011;683;48.738;9.226;2022-09-21T09:00:46;2.50;;;1.83;;
1378;SDS011;683;48.738;9.226;2022-09-21T09:03:28;2.40;;;1.97;;
1378;SDS011;683;48.738;9.226;2022-09-21T09:06:23;3.60;;;1.50;;
1378;SDS011;683;48.738;9.226;2022-09-21T09:12:07;3.87;;;2.17;;
1378;SDS011;683;48.738;9.226;2022-09-21T09:14:48;5.80;;;1.83;;
1378;SDS011;683;48.738;9.226;2022-09-21T09:17:39;4.47;;;1.53;;
1378;SDS011;683;48.738;9.226;2022-09-21T09:20:18;2.77;;;1.87;;
1378;SDS011;683;48.738;9.226;2022-09-21T09:22:51;2.13;;;1.70;;
1378;SDS011;683;48.738;9.226;2022-09-21T09:25:25;2.67;;;1.83;;
1378;SDS011;683;48.738;9.226;2022-09-21T09:28:00;4.13;;;1.90;;
1378;SDS011;683;48.738;9.226;2022-09-21T09:30:40;3.20;;;1.93;;
1378;SDS011;683;48.738;9.226;2022-09-21T09:33:10;2.53;;;1.77;;
1378;SDS011;683;48.738;9.226;2022-09-21T09:35:44;2.17;;;1.97;;
1378;SDS011;683;48.738;9.226;2022-09-21T09:38:16;1.93;;;1.60;;
1378;SDS011;683;48.738;9.226;2022-09-21T09:40:58;2.03;;;1.93;;
1378;SDS011;683;48.738;9.226;2022-09-21T09:43:46;4.00;;;2.60;;
1378;SDS011;683;48.738;9.226;2022-09-21T09:46:26;3.10;;;2.17;;
1378;SDS011;683;48.738;9.226;2022-09-21T09:49:07;4.00;;;2.47;;
1378;SDS011;683;48.738;9.226;2022-09-21T09:51:44;3.00;;;2.10;;
1378;SDS011;683;48.738;9.226;2022-09-21T09:54:12;3.00;;;2.10;;
1378;SDS011;683;48.738;9.226;2022-09-21T09:56:42;5.47;;;2.40;;
1378;SDS011;683;48.738;9.226;2022-09-21T09:59:13;2.90;;;2.17;;
1378;SDS011;683;48.738;9.226;2022-09-21T10:01:57;2.10;;;1.67;;
1378;SDS011;683;48.738;9.226;2022-09-21T10:04:26;2.60;;;2.00;;
1378;SDS011;683;48.738;9.226;2022-09-21T10:06:53;4.00;;;2.50;;
1378;SDS011;683;48.738;9.226;2022-09-21T10:09:25;2.30;;;2.10;;
1378;SDS011;683;48.738;9.226;2022-09-21T10:11:55;2.87;;;2.53;;
1378;SDS011;683;48.738;9.226;2022-09-21T10:14:27;3.30;;;2.27;;
1378;SDS011;683;48.738;9.226;2022-09-21T10:16:59;4.77;;;2.70;;
1378;SDS011;683;48.738;9.226;2022-09-21T10:19:31;3.50;;;3.20;;
1378;SDS011;683;48.738;9.226;2022-09-21T10:21:59;5.23;;;3.60;;
1378;SDS011;683;48.738;9.226;2022-09-21T10:24:28;5.07;;;2.57;;
1378;SDS011;683;48.738;9.226;2022-09-21T10:27:02;6.23;;;3.03;;
1378;SDS011;683;48.738;9.226;2022-09-21T10:29:39;4.07;;;2.40;;
1378;SDS011;683;48.738;9.226;2022-09-21T10:32:17;2.80;;;2.00;;
1378;SDS011;683;48.738;9.226;2022-09-21T10:37:42;1.87;;;1.77;;
1378;SDS011;683;48.738;9.226;2022-09-21T10:40:26;3.23;;;2.23;;
1378;SDS011;683;48.738;9.226;2022-09-21T10:42:55;6.23;;;2.30;;
1378;SDS011;683;48.738;9.226;2022-09-21T10:45:26;7.67;;;2.63;;
1378;SDS011;683;48.738;9.226;2022-09-21T10:47:55;3.03;;;1.80;;
1378;SDS011;683;48.738;9.226;2022-09-21T10:50:26;2.60;;;1.57;;
1378;SDS011;683;48.738;9.226;2022-09-21T10:52:59;1.43;;;1.30;;
1378;SDS011;683;48.738;9.226;2022-09-21T10:55:28;1.33;;;1.20;;
1378;SDS011;683;48.738;9.226;2022-09-21T10:57:56;1.40;;;1.00;;
1378;SDS011;683;48.738;9.226;2022-09-21T11:00:27;1.90;;;1.17;;
1378;SDS011;683;48.738;9.226;2022-09-21T11:03:27;1.43;;;0.90;;
1378;SDS011;683;48.738;9.226;2022-09-21T11:06:05;3.70;;;1.67;;
1378;SDS011;683;48.738;9.226;2022-09-21T11:08:38;1.30;;;0.80;;
1378;SDS011;683;48.738;9.226;2022-09-21T11:11:15;2.90;;;1.53;;
1378;SDS011;683;48.738;9.226;2022-09-21T11:13:52;1.90;;;1.10;;
1378;SDS011;683;48.738;9.226;2022-09-21T11:16:24;2.03;;;1.40;;
1378;SDS011;683;48.738;9.226;2022-09-21T11:19:01;2.63;;;1.00;;
1378;SDS011;683;48.738;9.226;2022-09-21T11:21:43;2.10;;;1.83;;
1378;SDS011;683;48.738;9.226;2022-09-21T11:24:19;3.60;;;1.80;;
1378;SDS011;683;48.738;9.226;2022-09-21T11:26:53;1.30;;;1.20;;
1378;SDS011;683;48.738;9.226;2022-09-21T11:29:28;3.07;;;1.30;;
1378;SDS011;683;48.738;9.226;2022-09-21T11:32:06;1.50;;;1.40;;
1378;SDS011;683;48.738;9.226;2022-09-21T11:34:56;1.63;;;1.10;;
1378;SDS011;683;48.738;9.226;2022-09-21T11:37:38;1.87;;;1.23;;
1378;SDS011;683;48.738;9.226;2022-09-21T11:40:29;1.20;;;1.10;;
1378;SDS011;683;48.738;9.226;2022-09-21T11:43:07;1.20;;;0.90;;
1378;SDS011;683;48.738;9.226;2022-09-21T11:45:47;3.70;;;1.30;;
1378;SDS011;683;48.738;9.226;2022-09-21T11:48:27;3.10;;;1.27;;
1378;SDS011;683;48.738;9.226;2022-09-21T11:51:12;1.07;;;0.93;;
1378;SDS011;683;48.738;9.226;2022-09-21T11:53:57;1.60;;;0.97;;
1378;SDS011;683;48.738;9.226;2022-09-21T11:56:41;1.00;;;0.90;;
1378;SDS011;683;48.738;9.226;2022-09-21T11:59:25;2.30;;;1.07;;
1378;SDS011;683;48.738;9.226;2022-09-21T12:05:05;2.60;;;1.23;;
1378;SDS011;683;48.738;9.226;2022-09-21T12:07:51;3.53;;;1.00;;
1378;SDS011;683;48.738;9.226;2022-09-21T12:10:36;1.10;;;0.93;;
1378;SDS011;683;48.738;9.226;2022-09-21T12:13:12;1.03;;;0.87;;
1378;SDS011;683;48.738;9.226;2022-09-21T12:15:51;1.40;;;1.13;;
1378;SDS011;683;48.738;9.226;2022-09-21T12:18:26;1.40;;;0.90;;
1378;SDS011;683;48.738;9.226;2022-09-21T12:21:01;4.80;;;0.70;;
1378;SDS011;683;48.738;9.226;2022-09-21T12:23:40;2.40;;;0.90;;
1378;SDS011;683;48.738;9.226;2022-09-21T12:26:09;0.67;;;0.67;;
1378;SDS011;683;48.738;9.226;2022-09-21T12:28:40;1.00;;;0.70;;
1378;SDS011;683;48.738;9.226;2022-09-21T12:31:12;4.57;;;1.30;;
1378;SDS011;683;48.738;9.226;2022-09-21T12:33:44;1.93;;;0.90;;
1378;SDS011;683;48.738;9.226;2022-09-21T12:36:16;1.53;;;1.37;;
1378;SDS011;683;48.738;9.226;2022-09-21T12:41:19;1.07;;;0.60;;
1378;SDS011;683;48.738;9.226;2022-09-21T12:43:54;1.43;;;0.80;;
1378;SDS011;683;48.738;9.226;2022-09-21T12:46:28;2.30;;;0.80;;
1378;SDS011;683;48.738;9.226;2022-09-21T12:49:00;1.57;;;0.77;;
1378;SDS011;683;48.738;9.226;2022-09-21T12:51:40;1.10;;;0.93;;
1378;SDS011;683;48.738;9.226;2022-09-21T12:54:13;1.83;;;1.00;;
1378;SDS011;683;48.738;9.226;2022-09-21T12:56:50;0.63;;;0.60;;
1378;SDS011;683;48.738;9.226;2022-09-21T12:59:24;3.07;;;0.63;;
1378;SDS011;683;48.738;9.226;2022-09-21T13:02:02;1.20;;;0.70;;
1378;SDS011;683;48.738;9.226;2022-09-21T13:04:44;2.37;;;0.80;;
1378;SDS011;683;48.738;9.226;2022-09-21T13:07:25;1.37;;;0.83;;
1378;SDS011;683;48.738;9.226;2022-09-21T13:10:07;0.80;;;0.70;;
1378;SDS011;683;48.738;9.226;2022-09-21T13:12:42;0.80;;;0.70;;
1378;SDS011;683;48.738;9.226;2022-09-21T13:15:12;6.13;;;1.20;;
1378;SDS011;683;48.738;9.226;2022-09-21T13:17:55;1.37;;;1.10;;
1378;SDS011;683;48.738;9.226;2022-09-21T13:20:25;2.53;;;0.80;;
1378;SDS011;683;48.738;9.226;2022-09-21T13:22:57;0.83;;;0.60;;
1378;SDS011;683;48.738;9.226;2022-09-21T13:25:29;1.60;;;0.90;;
1378;SDS011;683;48.738;9.226;2022-09-21T13:28:03;0.97;;;0.70;;
1378;SDS011;683;48.738;9.226;2022-09-21T13:30:35;0.90;;;0.90;;
1378;SDS011;683;48.738;9.226;2022-09-21T13:36:02;0.80;;;0.80;;
1378;SDS011;683;48.738;9.226;2022-09-21T13:41:29;0.70;;;0.70;;
1378;SDS011;683;48.738;9.226;2022-09-21T13:44:02;1.10;;;0.80;;
1378;SDS011;683;48.738;9.226;2022-09-21T13:46:47;3.73;;;1.00;;
1378;SDS011;683;48.738;9.226;2022-09-21T13:49:27;2.80;;;1.07;;
1378;SDS011;683;48.738;9.226;2022-09-21T13:51:59;0.73;;;0.73;;
1378;SDS011;683;48.738;9.226;2022-09-21T13:54:31;1.00;;;0.80;;
1378;SDS011;683;48.738;9.226;2022-09-21T13:57:03;2.00;;;1.00;;
1378;SDS011;683;48.738;9.226;2022-09-21T13:59:40;4.37;;;0.93;;
1378;SDS011;683;48.738;9.226;2022-09-21T14:02:20;0.93;;;0.90;;
1378;SDS011;683;48.738;9.226;2022-09-21T14:04:51;1.33;;;0.90;;
1378;SDS011;683;48.738;9.226;2022-09-21T14:07:18;0.97;;;0.80;;
1378;SDS011;683;48.738;9.226;2022-09-21T14:09:52;3.03;;;0.87;;
1378;SDS011;683;48.738;9.226;2022-09-21T14:12:25;1.37;;;1.03;;
1378;SDS011;683;48.738;9.226;2022-09-21T14:15:08;1.07;;;0.80;;
1378;SDS011;683;48.738;9.226;2022-09-21T14:21:13;2.03;;;0.90;;
1378;SDS011;683;48.738;9.226;2022-09-21T14:24:07;2.10;;;1.20;;
1378;SDS011;683;48.738;9.226;2022-09-21T14:27:00;0.83;;;0.83;;
1378;SDS011;683;48.738;9.226;2022-09-21T14:29:40;1.70;;;0.97;;
1378;SDS011;683;48.738;9.226;2022-09-21T14:32:13;1.80;;;1.20;;
1378;SDS011;683;48.738;9.226;2022-09-21T14:34:44;1.10;;;0.90;;
1378;SDS011;683;48.738;9.226;2022-09-21T14:37:18;5.27;;;1.10;;
1378;SDS011;683;48.738;9.226;2022-09-21T14:39:53;1.00;;;0.80;;
1378;SDS011;683;48.738;9.226;2022-09-21T14:42:22;1.10;;;0.90;;
1378;SDS011;683;48.738;9.226;2022-09-21T14:44:56;1.03;;;0.93;;
1378;SDS011;683;48.738;9.226;2022-09-21T14:47:34;1.03;;;1.03;;
1378;SDS011;683;48.738;9.226;2022-09-21T14:50:16;1.80;;;1.17;;
1378;SDS011;683;48.738;9.226;2022-09-21T14:52:58;1.23;;;1.13;;
1378;SDS011;683;48.738;9.226;2022-09-21T14:55:44;1.20;;;1.10;;
1378;SDS011;683;48.738;9.226;2022-09-21T14:58:31;0.93;;;0.90;;
1378;SDS011;683;48.738;9.226;2022-09-21T15:01:24;1.73;;;1.30;;
1378;SDS011;683;48.738;9.226;2022-09-21T15:04:07;1.67;;;1.20;;
1378;SDS011;683;48.738;9.226;2022-09-21T15:06:55;2.10;;;1.50;;
1378;SDS011;683;48.738;9.226;2022-09-21T15:10:01;0.87;;;0.87;;
1378;SDS011;683;48.738;9.226;2022-09-21T15:12:58;1.53;;;1.00;;
1378;SDS011;683;48.738;9.226;2022-09-21T15:15:34;2.03;;;0.93;;
1378;SDS011;683;48.738;9.226;2022-09-21T15:18:14;1.67;;;1.20;;
1378;SDS011;683;48.738;9.226;2022-09-21T15:20:49;1.00;;;0.90;;
1378;SDS011;683;48.738;9.226;2022-09-21T15:23:26;1.53;;;1.10;;
1378;SDS011;683;48.738;9.226;2022-09-21T15:25:56;1.20;;;1.00;;
1378;SDS011;683;48.738;9.226;2022-09-21T15:28:28;1.90;;;1.10;;
1378;SDS011;683;48.738;9.226;2022-09-21T15:31:00;0.83;;;0.73;;
1378;SDS011;683;48.738;9.226;2022-09-21T15:33:29;0.80;;;0.80;;
1378;SDS011;683;48.738;9.226;2022-09-21T15:35:59;2.10;;;0.80;;
1378;SDS011;683;48.738;9.226;2022-09-21T15:38:27;1.10;;;0.80;;
1378;SDS011;683;48.738;9.226;2022-09-21T15:40:56;2.77;;;0.97;;
1378;SDS011;683;48.738;9.226;2022-09-21T15:43:24;1.17;;;1.07;;
1378;SDS011;683;48.738;9.226;2022-09-21T15:45:52;2.10;;;1.03;;
1378;SDS011;683;48.738;9.226;2022-09-21T15:48:23;1.43;;;0.83;;
1378;SDS011;683;48.738;9.226;2022-09-21T15:50:55;2.27;;;1.30;;
1378;SDS011;683;48.738;9.226;2022-09-21T15:53:26;0.90;;;0.70;;
1378;SDS011;683;48.738;9.226;2022-09-21T15:55:57;1.83;;;0.77;;
1378;SDS011;683;48.738;9.226;2022-09-21T15:58:29;1.33;;;0.80;;
1378;SDS011;683;48.738;9.226;2022-09-21T16:01:00;1.90;;;0.80;;
1378;SDS011;683;48.738;9.226;2022-09-21T16:03:28;0.90;;;0.90;;
1378;SDS011;683;48.738;9.226;2022-09-21T16:05:56;1.43;;;1.00;;
1378;SDS011;683;48.738;9.226;2022-09-21T16:08:28;1.00;;;0.90;;
1378;SDS011;683;48.738;9.226;2022-09-21T16:11:09;1.40;;;0.90;;
1378;SDS011;683;48.738;9.226;2022-09-21T16:13:42;1.53;;;0.90;;
1378;SDS011;683;48.738;9.226;2022-09-21T16:16:27;0.80;;;0.80;;
1378;SDS011;683;48.738;9.226;2022-09-21T16:18:55;1.03;;;0.90;;
1378;SDS011;683;48.738;9.226;2022-09-21T16:21:26;2.07;;;0.80;;